createdAt,value
2018-07-17T00:01:08.933Z,12.10
2018-07-17T00:03:36.035Z,12.13
2018-07-17T00:06:03.192Z,10.83
2018-07-17T00:08:30.317Z,12.17
2018-07-17T00:10:57.520Z,9.30
2018-07-17T00:13:24.677Z,10.03
2018-07-17T00:15:51.857Z,10.47
2018-07-17T00:18:19.000Z,11.67
2018-07-17T00:20:46.368Z,11.63
2018-07-17T00:23:13.573Z,12.90
2018-07-17T00:25:40.739Z,15.40
2018-07-17T00:28:07.900Z,10.63
2018-07-17T00:30:35.064Z,10.87
2018-07-17T00:33:02.207Z,10.70
2018-07-17T00:35:29.312Z,9.67
2018-07-17T00:37:56.418Z,9.97
2018-07-17T00:40:23.565Z,10.80
2018-07-17T00:42:50.672Z,10.43
2018-07-17T00:45:17.820Z,10.60
2018-07-17T00:47:45.103Z,10.53
2018-07-17T00:50:12.228Z,11.00
2018-07-17T00:52:39.396Z,10.20
2018-07-17T00:55:06.619Z,11.20
2018-07-17T00:57:33.756Z,11.07
2018-07-17T01:00:00.927Z,10.40
2018-07-17T01:02:33.672Z,11.00
2018-07-17T01:05:06.684Z,11.20
2018-07-17T01:07:46.291Z,12.10
2018-07-17T01:10:18.948Z,14.63
2018-07-17T01:12:45.563Z,11.97
2018-07-17T01:15:22.951Z,12.57
2018-07-17T01:17:50.125Z,23.60
2018-07-17T01:20:17.275Z,17.07
2018-07-17T01:22:44.420Z,21.97
2018-07-17T01:25:11.647Z,15.57
2018-07-17T01:27:38.828Z,11.40
2018-07-17T01:30:05.996Z,15.63
2018-07-17T01:32:33.124Z,16.33
2018-07-17T01:35:00.326Z,18.37
2018-07-17T01:37:27.552Z,13.00
2018-07-17T01:39:54.710Z,14.57
2018-07-17T01:42:21.880Z,24.97
2018-07-17T01:44:49.007Z,11.20
2018-07-17T01:47:16.141Z,13.30
2018-07-17T01:49:43.280Z,14.27
2018-07-17T01:52:10.451Z,11.90
2018-07-17T01:54:37.586Z,10.80
2018-07-17T01:57:04.700Z,10.33
2018-07-17T01:59:31.848Z,10.90
2018-07-17T02:01:58.993Z,11.00
2018-07-17T02:04:26.115Z,11.77
2018-07-17T02:06:53.253Z,10.27
2018-07-17T02:09:20.379Z,11.03
2018-07-17T02:11:47.521Z,10.87
2018-07-17T02:14:14.688Z,10.37
2018-07-17T02:16:41.833Z,10.47
2018-07-17T02:19:08.969Z,10.50
2018-07-17T02:21:36.132Z,10.40
2018-07-17T02:24:03.265Z,10.40
2018-07-17T02:26:30.384Z,10.70
2018-07-17T02:28:57.508Z,10.20
2018-07-17T02:31:24.759Z,11.20
2018-07-17T02:33:51.879Z,9.80
2018-07-17T02:36:19.044Z,10.57
2018-07-17T02:38:46.195Z,9.97
2018-07-17T02:41:13.339Z,11.80
2018-07-17T02:43:40.451Z,10.30
2018-07-17T02:46:07.586Z,10.77
2018-07-17T02:48:34.740Z,11.40
2018-07-17T02:51:01.880Z,12.97
2018-07-17T02:53:28.971Z,11.47
2018-07-17T02:55:56.102Z,9.87
2018-07-17T02:58:23.256Z,9.70
2018-07-17T03:00:50.480Z,10.87
2018-07-17T03:03:17.605Z,12.13
2018-07-17T03:05:44.712Z,9.63
2018-07-17T03:08:11.849Z,10.13
2018-07-17T03:10:38.956Z,11.20
2018-07-17T03:13:06.116Z,9.53
2018-07-17T03:15:33.197Z,9.60
2018-07-17T03:18:00.342Z,9.60
2018-07-17T03:20:27.452Z,9.10
2018-07-17T03:22:54.628Z,12.73
2018-07-17T03:25:21.770Z,8.47
2018-07-17T03:27:48.882Z,13.63
2018-07-17T03:30:16.012Z,9.23
2018-07-17T03:32:43.147Z,9.13
2018-07-17T03:35:10.261Z,8.83
2018-07-17T03:37:37.448Z,9.33
2018-07-17T03:40:04.905Z,9.40
2018-07-17T03:42:32.047Z,9.63
2018-07-17T03:44:59.187Z,9.10
2018-07-17T03:47:26.357Z,9.70
2018-07-17T03:49:53.516Z,9.77
2018-07-17T03:52:20.754Z,9.30
2018-07-17T03:54:47.937Z,8.93
2018-07-17T03:57:15.117Z,8.83
2018-07-17T03:59:42.326Z,8.83
2018-07-17T04:02:09.460Z,11.03
2018-07-17T04:04:36.616Z,9.00
2018-07-17T04:07:03.777Z,10.03
2018-07-17T04:09:30.933Z,8.90
2018-07-17T04:11:58.115Z,13.90
2018-07-17T04:14:25.359Z,10.77
2018-07-17T04:16:54.295Z,10.40
2018-07-17T04:19:22.451Z,11.53
2018-07-17T04:21:50.315Z,12.67
2018-07-17T04:24:17.672Z,9.57
2018-07-17T04:26:44.926Z,11.13
2018-07-17T04:29:12.119Z,10.13
2018-07-17T04:31:39.217Z,10.77
2018-07-17T04:34:06.368Z,12.30
2018-07-17T04:36:33.513Z,10.40
2018-07-17T04:39:00.689Z,12.37
2018-07-17T04:41:27.812Z,9.73
2018-07-17T04:43:54.937Z,14.00
2018-07-17T04:46:22.209Z,10.73
2018-07-17T04:48:49.429Z,10.77
2018-07-17T04:51:16.635Z,10.13
2018-07-17T04:53:43.831Z,9.77
2018-07-17T04:56:11.181Z,11.13
2018-07-17T04:58:38.352Z,11.17
2018-07-17T05:01:05.909Z,10.90
2018-07-17T05:03:33.019Z,20.97
2018-07-17T05:06:00.140Z,13.93
2018-07-17T05:08:27.260Z,15.97
2018-07-17T05:10:54.480Z,14.37
2018-07-17T05:13:21.664Z,12.73
2018-07-17T05:15:48.792Z,12.70
2018-07-17T05:18:15.912Z,13.83
2018-07-17T05:20:43.028Z,11.20
2018-07-17T05:23:10.129Z,10.20
2018-07-17T05:25:37.241Z,10.40
2018-07-17T05:28:04.356Z,11.97
2018-07-17T05:30:31.513Z,10.53
2018-07-17T05:32:58.672Z,13.00
2018-07-17T05:35:25.810Z,12.27
2018-07-17T05:37:53.035Z,13.10
2018-07-17T05:40:20.223Z,14.00
2018-07-17T05:42:47.368Z,13.30
2018-07-17T05:45:14.512Z,13.97
2018-07-17T05:47:41.623Z,12.40
2018-07-17T05:50:10.157Z,13.93
2018-07-17T05:52:37.516Z,14.77
2018-07-17T05:55:04.821Z,14.20
2018-07-17T05:57:31.898Z,15.10
2018-07-17T05:59:59.088Z,14.40
2018-07-17T06:02:26.208Z,14.20
2018-07-17T06:04:53.335Z,18.57
2018-07-17T06:07:20.453Z,17.20
2018-07-17T06:09:47.670Z,15.27
2018-07-17T06:12:14.921Z,17.90
2018-07-17T06:14:42.133Z,15.53
2018-07-17T06:17:09.761Z,14.87
2018-07-17T06:19:36.915Z,13.70
2018-07-17T06:22:04.088Z,14.40
2018-07-17T06:24:31.208Z,17.13
2018-07-17T06:26:58.331Z,17.07
2018-07-17T06:29:25.612Z,15.60
2018-07-17T06:31:52.764Z,15.63
2018-07-17T06:34:26.851Z,16.37
2018-07-17T06:36:54.020Z,15.97
2018-07-17T06:39:21.192Z,16.33
2018-07-17T06:41:48.324Z,15.20
2018-07-17T06:44:15.492Z,14.03
2018-07-17T06:46:42.651Z,13.97
2018-07-17T06:49:09.744Z,14.77
2018-07-17T06:51:36.922Z,13.33
2018-07-17T06:54:04.085Z,13.40
2018-07-17T06:56:31.245Z,13.70
2018-07-17T06:58:58.427Z,13.67
2018-07-17T07:01:25.588Z,12.60
2018-07-17T07:03:52.739Z,13.47
2018-07-17T07:06:19.946Z,11.23
2018-07-17T07:08:47.076Z,12.83
2018-07-17T07:11:14.321Z,12.47
2018-07-17T07:13:41.436Z,11.30
2018-07-17T07:16:08.604Z,10.67
2018-07-17T07:18:35.699Z,10.57
2018-07-17T07:21:02.887Z,9.90
2018-07-17T07:23:30.019Z,10.27
2018-07-17T07:25:57.162Z,12.13
2018-07-17T07:28:24.296Z,9.37
2018-07-17T07:30:51.744Z,9.03
2018-07-17T07:33:18.957Z,9.53
2018-07-17T07:35:46.173Z,10.13
2018-07-17T07:38:13.319Z,7.83
2018-07-17T07:40:40.490Z,9.97
2018-07-17T07:43:07.607Z,7.13
2018-07-17T07:45:34.787Z,8.80
2018-07-17T07:48:01.972Z,7.20
2018-07-17T07:50:29.111Z,7.27
2018-07-17T07:52:56.248Z,7.10
2018-07-17T07:55:23.389Z,8.03
2018-07-17T07:57:50.592Z,7.63
2018-07-17T08:00:17.807Z,6.80
2018-07-17T08:02:44.998Z,6.80
2018-07-17T08:05:12.201Z,6.93
2018-07-17T08:07:39.388Z,5.77
2018-07-17T08:10:06.912Z,6.73
2018-07-17T08:12:34.069Z,6.60
2018-07-17T08:15:01.284Z,5.73
2018-07-17T08:17:28.752Z,8.90
2018-07-17T08:19:55.899Z,8.40
2018-07-17T08:22:22.969Z,5.70
2018-07-17T08:24:50.094Z,6.60
2018-07-17T08:27:17.241Z,4.70
2018-07-17T08:29:44.385Z,5.60
2018-07-17T08:32:11.532Z,5.80
2018-07-17T08:34:38.664Z,5.20
2018-07-17T08:37:05.912Z,5.10
2018-07-17T08:39:33.128Z,5.37
2018-07-17T08:42:00.256Z,5.30
2018-07-17T08:44:27.356Z,6.67
2018-07-17T08:46:54.519Z,5.83
2018-07-17T08:49:21.676Z,5.57
2018-07-17T08:51:48.874Z,5.00
2018-07-17T08:54:16.082Z,5.77
2018-07-17T08:56:43.257Z,4.87
2018-07-17T08:59:10.411Z,5.53
2018-07-17T09:01:37.551Z,5.53
2018-07-17T09:04:04.731Z,8.40
2018-07-17T09:06:31.959Z,8.93
2018-07-17T09:08:59.104Z,4.80
2018-07-17T09:11:26.317Z,5.50
2018-07-17T09:13:53.425Z,4.80
2018-07-17T09:16:20.584Z,4.23
2018-07-17T09:18:47.747Z,5.07
2018-07-17T09:21:14.943Z,13.10
2018-07-17T09:23:42.943Z,4.60
2018-07-17T09:26:10.143Z,5.50
2018-07-17T09:28:37.304Z,4.40
2018-07-17T09:31:04.451Z,6.00
2018-07-17T09:33:31.941Z,4.80
2018-07-17T09:35:59.755Z,4.90
2018-07-17T09:38:26.873Z,5.70
2018-07-17T09:40:54.239Z,5.10
2018-07-17T09:43:21.388Z,4.50
2018-07-17T09:45:49.096Z,4.30
2018-07-17T09:48:16.252Z,4.53
2018-07-17T09:50:43.403Z,4.27
2018-07-17T09:53:10.505Z,4.80
2018-07-17T09:55:37.714Z,4.80
2018-07-17T09:58:04.956Z,4.73
2018-07-17T10:00:38.688Z,5.17
2018-07-17T10:03:05.899Z,4.70
2018-07-17T10:05:33.004Z,4.80
2018-07-17T10:08:00.156Z,5.03
2018-07-17T10:10:27.348Z,5.10
2018-07-17T10:12:54.480Z,4.30
2018-07-17T10:15:21.675Z,5.63
2018-07-17T10:17:48.879Z,4.13
2018-07-17T10:20:16.031Z,5.20
2018-07-17T10:22:43.140Z,6.10
2018-07-17T10:25:10.311Z,7.03
2018-07-17T10:27:38.040Z,4.43
2018-07-17T10:30:05.274Z,5.00
2018-07-17T10:32:32.508Z,4.43
2018-07-17T10:35:00.269Z,4.63
2018-07-17T10:37:27.444Z,5.00
2018-07-17T10:39:54.608Z,4.20
2018-07-17T10:42:21.740Z,8.20
2018-07-17T10:44:48.881Z,4.80
2018-07-17T10:47:16.136Z,4.67
2018-07-17T10:49:43.248Z,5.40
2018-07-17T10:52:10.420Z,5.33
2018-07-17T10:54:37.532Z,5.70
2018-07-17T10:57:04.664Z,5.70
2018-07-17T10:59:31.739Z,5.20
2018-07-17T11:01:58.929Z,5.10
2018-07-17T11:04:26.083Z,6.30
2018-07-17T11:06:53.252Z,5.07
2018-07-17T11:09:20.404Z,4.50
2018-07-17T11:11:47.812Z,5.40
2018-07-17T11:14:14.991Z,5.37
2018-07-17T11:16:42.152Z,6.30
2018-07-17T11:19:09.277Z,5.90
2018-07-17T11:21:36.402Z,5.40
2018-07-17T11:24:03.562Z,6.40
2018-07-17T11:26:30.727Z,5.33
2018-07-17T11:28:57.837Z,4.80
2018-07-17T11:31:24.976Z,5.37
2018-07-17T11:33:52.136Z,5.10
2018-07-17T11:36:19.305Z,4.27
2018-07-17T11:38:46.515Z,4.93
2018-07-17T11:41:13.637Z,5.00
2018-07-17T11:43:40.751Z,4.63
2018-07-17T11:46:07.916Z,4.37
2018-07-17T11:48:35.061Z,4.40
2018-07-17T11:51:02.311Z,4.50
2018-07-17T11:53:29.436Z,4.20
2018-07-17T11:55:56.597Z,4.03
2018-07-17T11:58:23.688Z,4.90
2018-07-17T12:00:50.855Z,4.13
2018-07-17T12:03:18.007Z,3.67
2018-07-17T12:05:45.275Z,3.93
2018-07-17T12:08:12.457Z,5.43
2018-07-17T12:10:39.588Z,4.37
2018-07-17T12:13:06.903Z,4.40
2018-07-17T12:15:35.243Z,4.27
2018-07-17T12:18:02.512Z,4.13
2018-07-17T12:20:29.794Z,7.30
2018-07-17T12:22:56.887Z,4.33
2018-07-17T12:25:24.276Z,4.13
2018-07-17T12:27:54.082Z,7.30
2018-07-17T12:30:25.008Z,4.20
2018-07-17T12:32:52.206Z,4.80
2018-07-17T12:35:19.381Z,4.33
2018-07-17T12:37:46.569Z,5.00
2018-07-17T12:40:14.570Z,4.87
2018-07-17T12:42:41.768Z,5.20
2018-07-17T12:45:08.923Z,5.00
2018-07-17T12:47:36.105Z,6.63
2018-07-17T12:50:04.479Z,4.60
2018-07-17T12:52:31.536Z,4.60
2018-07-17T12:54:58.786Z,4.90
2018-07-17T12:57:26.015Z,4.70
2018-07-17T12:59:53.227Z,4.20
2018-07-17T13:02:20.495Z,3.93
2018-07-17T13:04:47.961Z,4.23
2018-07-17T13:07:15.281Z,4.87
2018-07-17T13:09:42.456Z,4.90
2018-07-17T13:12:09.807Z,5.27
2018-07-17T13:14:37.037Z,4.23
2018-07-17T13:17:04.249Z,4.67
2018-07-17T13:19:31.391Z,4.57
2018-07-17T13:22:02.081Z,5.40
2018-07-17T13:24:32.203Z,4.80
2018-07-17T13:27:02.128Z,4.20
2018-07-17T13:29:30.568Z,5.00
2018-07-17T13:32:02.847Z,6.60
2018-07-17T13:34:31.515Z,4.70
2018-07-17T13:37:00.588Z,4.37
2018-07-17T13:39:32.074Z,6.77
2018-07-17T13:42:04.055Z,6.00
2018-07-17T13:44:33.865Z,4.50
2018-07-17T13:47:05.125Z,4.33
2018-07-17T13:49:34.545Z,4.53
2018-07-17T13:52:02.910Z,5.73
2018-07-17T13:54:30.839Z,4.03
2018-07-17T13:56:58.117Z,3.50
2018-07-17T13:59:25.252Z,4.77
2018-07-17T14:01:52.391Z,6.93
2018-07-17T14:04:19.649Z,10.73
2018-07-17T14:06:46.894Z,10.33
2018-07-17T14:09:14.190Z,9.67
2018-07-17T14:11:41.400Z,8.20
2018-07-17T14:14:08.599Z,9.70
2018-07-17T14:16:35.825Z,8.50
2018-07-17T14:19:03.046Z,11.90
2018-07-17T14:21:30.234Z,11.13
2018-07-17T14:23:57.423Z,12.13
2018-07-17T14:26:24.627Z,12.10
2018-07-17T14:28:51.827Z,9.03
2018-07-17T14:31:18.997Z,9.80
2018-07-17T14:33:46.104Z,10.63
2018-07-17T14:36:13.349Z,10.33
2018-07-17T14:38:40.492Z,8.90
2018-07-17T14:41:07.757Z,9.37
2018-07-17T14:43:34.900Z,9.93
2018-07-17T14:46:02.061Z,10.83
2018-07-17T14:48:29.347Z,8.43
2018-07-17T14:50:56.538Z,10.47
2018-07-17T14:53:23.769Z,9.10
2018-07-17T14:55:50.973Z,8.57
2018-07-17T14:58:18.181Z,8.70
2018-07-17T15:00:45.420Z,10.03
2018-07-17T15:03:12.680Z,8.73
2018-07-17T15:05:39.844Z,8.37
2018-07-17T15:08:06.947Z,8.87
2018-07-17T15:10:34.174Z,9.17
2018-07-17T15:13:01.407Z,7.83
2018-07-17T15:15:28.667Z,7.73
2018-07-17T15:17:55.908Z,7.20
2018-07-17T15:20:23.109Z,7.40
2018-07-17T15:22:50.281Z,7.63
2018-07-17T15:25:17.477Z,7.73
2018-07-17T15:27:44.749Z,6.20
2018-07-17T15:30:11.912Z,5.87
2018-07-17T15:32:39.125Z,6.03
2018-07-17T15:35:06.309Z,5.37
2018-07-17T15:37:33.549Z,5.60
2018-07-17T15:40:00.778Z,5.63
2018-07-17T15:42:27.945Z,5.07
2018-07-17T15:44:55.171Z,7.50
2018-07-17T15:47:22.373Z,4.87
2018-07-17T15:49:49.592Z,4.20
2018-07-17T15:52:16.724Z,5.00
2018-07-17T15:54:43.926Z,4.40
2018-07-17T15:57:11.108Z,5.13
2018-07-17T15:59:47.075Z,4.50
2018-07-17T16:02:14.204Z,4.50
2018-07-17T16:04:41.339Z,5.07
2018-07-17T16:07:08.520Z,6.90
2018-07-17T16:09:35.714Z,9.00
2018-07-17T16:12:02.868Z,7.27
2018-07-17T16:14:30.272Z,9.70
2018-07-17T16:16:57.191Z,13.70
2018-07-17T16:19:24.299Z,11.23
2018-07-17T16:21:51.507Z,7.00
2018-07-17T16:24:18.712Z,5.53
2018-07-17T16:26:45.972Z,5.50
2018-07-17T16:29:13.124Z,6.80
2018-07-17T16:31:40.189Z,4.97
2018-07-17T16:34:07.358Z,4.93
2018-07-17T16:36:34.503Z,4.23
2018-07-17T16:39:01.665Z,3.73
2018-07-17T16:41:28.794Z,5.60
2018-07-17T16:43:55.924Z,4.20
2018-07-17T16:46:23.068Z,3.40
2018-07-17T16:48:50.182Z,4.37
2018-07-17T16:51:17.330Z,5.20
2018-07-17T16:53:44.467Z,4.83
2018-07-17T16:56:11.620Z,5.73
2018-07-17T16:58:38.781Z,5.43
2018-07-17T17:01:05.968Z,3.80
2018-07-17T17:03:33.080Z,2.80
2018-07-17T17:06:00.236Z,2.90
2018-07-17T17:08:27.401Z,3.40
2018-07-17T17:10:54.545Z,3.60
2018-07-17T17:13:21.844Z,3.40
2018-07-17T17:15:49.047Z,3.60
2018-07-17T17:18:16.189Z,3.50
2018-07-17T17:20:43.351Z,4.03
2018-07-17T17:23:10.492Z,3.70
2018-07-17T17:25:37.641Z,3.40
2018-07-17T17:28:04.842Z,5.23
2018-07-17T17:30:31.976Z,3.17
2018-07-17T17:32:59.112Z,3.90
2018-07-17T17:35:26.273Z,4.20
2018-07-17T17:37:53.376Z,3.77
2018-07-17T17:40:20.468Z,3.70
2018-07-17T17:42:47.623Z,3.80
2018-07-17T17:45:14.799Z,8.27
2018-07-17T17:47:42.031Z,5.87
2018-07-17T17:50:09.205Z,4.50
2018-07-17T17:52:36.340Z,5.70
2018-07-17T17:55:04.217Z,4.67
2018-07-17T17:57:31.409Z,7.40
2018-07-17T17:59:58.555Z,8.77
2018-07-17T18:02:25.684Z,6.00
2018-07-17T18:04:52.821Z,7.03
2018-07-17T18:07:19.941Z,5.63
2018-07-17T18:09:47.131Z,5.40
2018-07-17T18:12:14.307Z,5.40
2018-07-17T18:14:41.454Z,6.83
2018-07-17T18:17:08.893Z,9.00
2018-07-17T18:19:36.238Z,5.67
2018-07-17T18:22:03.363Z,6.10
2018-07-17T18:24:30.518Z,9.40
2018-07-17T18:26:57.712Z,8.93
2018-07-17T18:29:24.847Z,13.73
2018-07-17T18:31:52.012Z,11.87
2018-07-17T18:34:19.202Z,11.00
2018-07-17T18:36:46.433Z,14.67
2018-07-17T18:39:13.557Z,9.10
2018-07-17T18:41:40.836Z,9.60
2018-07-17T18:44:07.917Z,8.90
2018-07-17T18:46:35.103Z,8.33
2018-07-17T18:49:02.256Z,6.27
2018-07-17T18:51:29.570Z,4.97
2018-07-17T18:53:56.788Z,6.00
2018-07-17T18:56:23.922Z,5.23
2018-07-17T18:58:51.183Z,5.33
2018-07-17T19:01:18.499Z,4.60
2018-07-17T19:03:45.716Z,4.60
2018-07-17T19:06:12.893Z,8.50
2018-07-17T19:08:40.085Z,5.13
2018-07-17T19:11:07.350Z,7.20
2018-07-17T19:13:34.624Z,6.40
2018-07-17T19:16:01.862Z,6.50
2018-07-17T19:18:29.085Z,8.13
2018-07-17T19:20:56.381Z,6.83
2018-07-17T19:23:23.900Z,11.20
2018-07-17T19:25:51.176Z,7.00
2018-07-17T19:28:18.320Z,5.77
2018-07-17T19:30:45.519Z,6.13
2018-07-17T19:33:12.682Z,5.37
2018-07-17T19:36:43.301Z,6.67
2018-07-17T19:39:11.489Z,5.63
2018-07-17T19:41:38.773Z,5.50
2018-07-17T19:44:06.093Z,4.87
2018-07-17T19:46:33.283Z,4.70
2018-07-17T19:49:00.416Z,24.23
2018-07-17T19:51:27.652Z,6.10
2018-07-17T19:53:54.782Z,5.90
2018-07-17T19:56:21.961Z,5.20
2018-07-17T19:58:49.140Z,12.90
2018-07-17T20:01:16.326Z,5.23
2018-07-17T20:03:43.591Z,4.87
2018-07-17T20:06:10.755Z,5.40
2018-07-17T20:08:37.942Z,5.20
2018-07-17T20:11:05.154Z,6.10
2018-07-17T20:13:32.336Z,6.70
2018-07-17T20:15:59.505Z,4.40
2018-07-17T20:18:26.676Z,9.83
2018-07-17T20:20:53.960Z,4.80
2018-07-17T20:23:21.208Z,10.20
2018-07-17T20:25:48.440Z,7.63
2018-07-17T20:28:15.670Z,7.70
2018-07-17T20:30:42.825Z,6.83
2018-07-17T20:33:09.974Z,9.97
2018-07-17T20:35:37.199Z,11.50
2018-07-17T20:38:04.436Z,5.67
2018-07-17T20:40:31.865Z,5.03
2018-07-17T20:42:59.008Z,6.93
2018-07-17T20:45:26.188Z,4.50
2018-07-17T20:47:53.321Z,5.90
2018-07-17T20:50:20.584Z,5.10
2018-07-17T20:52:47.843Z,7.73
2018-07-17T20:55:15.052Z,5.50
2018-07-17T20:57:42.196Z,6.30
2018-07-17T21:00:09.365Z,5.57
2018-07-17T21:02:36.710Z,6.87
2018-07-17T21:05:05.096Z,6.67
2018-07-17T21:07:32.325Z,6.27
2018-07-17T21:09:59.508Z,5.00
2018-07-17T21:12:26.672Z,5.13
2018-07-17T21:14:54.030Z,5.57
2018-07-17T21:17:21.164Z,6.10
2018-07-17T21:19:48.353Z,4.50
2018-07-17T21:22:15.845Z,5.50
2018-07-17T21:24:43.004Z,6.30
2018-07-17T21:27:10.136Z,5.30
2018-07-17T21:29:37.269Z,6.53
2018-07-17T21:32:04.422Z,4.97
2018-07-17T21:34:31.528Z,5.13
2018-07-17T21:36:58.695Z,4.70
2018-07-17T21:39:25.801Z,6.60
2018-07-17T21:41:52.949Z,5.87
2018-07-17T21:44:20.104Z,7.53
2018-07-17T21:46:47.267Z,6.97
2018-07-17T21:49:14.396Z,6.23
2018-07-17T21:54:15.468Z,6.57
2018-07-17T21:56:42.645Z,6.60
2018-07-17T21:59:09.740Z,6.77
2018-07-17T22:04:10.764Z,7.00
2018-07-17T22:06:37.877Z,8.30
2018-07-17T22:09:07.684Z,7.83
2018-07-17T22:11:34.803Z,10.83
2018-07-17T22:14:01.973Z,8.63
2018-07-17T22:16:29.169Z,7.73
2018-07-17T22:18:56.264Z,8.47
2018-07-17T22:21:24.162Z,7.90
2018-07-17T22:23:51.305Z,7.00
2018-07-17T22:26:18.642Z,6.53
2018-07-17T22:28:45.773Z,10.00
2018-07-17T22:31:12.920Z,5.83
2018-07-17T22:33:40.037Z,6.60
2018-07-17T22:36:07.185Z,6.93
2018-07-17T22:38:34.328Z,6.40
2018-07-17T22:41:01.479Z,6.03
2018-07-17T22:43:28.627Z,13.53
2018-07-17T22:45:55.808Z,7.87
2018-07-17T22:48:22.924Z,8.17
2018-07-17T22:50:50.038Z,9.10
2018-07-17T22:53:17.180Z,7.10
2018-07-17T22:55:44.323Z,7.43
2018-07-17T22:58:11.460Z,7.33
2018-07-17T23:00:38.649Z,8.20
2018-07-17T23:03:05.827Z,9.67
2018-07-17T23:05:32.925Z,6.73
2018-07-17T23:08:00.062Z,6.43
2018-07-17T23:10:27.224Z,8.10
2018-07-17T23:12:54.355Z,8.30
2018-07-17T23:15:21.494Z,6.90
2018-07-17T23:17:48.684Z,7.20
2018-07-17T23:20:15.814Z,8.13
2018-07-17T23:22:51.315Z,7.83
2018-07-17T23:25:18.863Z,10.47
2018-07-17T23:27:46.445Z,9.63
2018-07-17T23:30:13.879Z,10.77
2018-07-17T23:32:41.158Z,15.30
2018-07-17T23:35:08.415Z,9.40
2018-07-17T23:37:35.708Z,8.53
2018-07-17T23:40:03.070Z,11.00
2018-07-17T23:42:30.350Z,9.53
2018-07-17T23:44:57.603Z,7.10
2018-07-17T23:47:24.875Z,11.27
2018-07-17T23:49:52.143Z,6.97
2018-07-17T23:52:19.412Z,8.50
2018-07-17T23:54:46.651Z,7.97
2018-07-17T23:57:13.902Z,11.90
2018-07-17T23:59:41.166Z,9.53
